createdAt,value
2019-02-23T00:01:04.930Z,16.13
2019-02-23T00:03:35.888Z,15.70
2019-02-23T00:06:06.608Z,15.57
2019-02-23T00:08:37.164Z,15.20
2019-02-23T00:11:07.833Z,15.17
2019-02-23T00:13:38.945Z,14.80
2019-02-23T00:16:09.766Z,12.97
2019-02-23T00:18:41.253Z,14.73
2019-02-23T00:21:14.442Z,13.30
2019-02-23T00:23:45.056Z,14.07
2019-02-23T00:26:15.866Z,14.00
2019-02-23T00:28:46.475Z,15.23
2019-02-23T00:31:17.965Z,13.30
2019-02-23T00:33:48.985Z,13.50
2019-02-23T00:36:19.623Z,13.00
2019-02-23T00:38:50.295Z,13.03
2019-02-23T00:41:21.365Z,12.77
2019-02-23T00:43:51.953Z,12.60
2019-02-23T00:46:23.021Z,11.83
2019-02-23T00:48:53.555Z,12.60
2019-02-23T00:51:24.238Z,13.23
2019-02-23T00:53:55.008Z,12.77
2019-02-23T00:56:25.736Z,12.17
2019-02-23T00:58:56.298Z,12.83
2019-02-23T01:01:27.380Z,11.63
2019-02-23T01:03:58.087Z,12.40
2019-02-23T01:06:28.670Z,12.00
2019-02-23T01:09:00.567Z,12.30
2019-02-23T01:11:31.156Z,12.23
2019-02-23T01:14:01.703Z,11.47
2019-02-23T01:16:34.839Z,12.30
2019-02-23T01:19:05.649Z,11.43
2019-02-23T01:21:36.245Z,12.03
2019-02-23T01:24:06.877Z,12.27
2019-02-23T01:26:37.697Z,10.90
2019-02-23T01:29:08.602Z,11.87
2019-02-23T01:31:39.326Z,11.63
2019-02-23T01:34:11.341Z,11.27
2019-02-23T01:36:42.951Z,11.53
2019-02-23T01:39:14.507Z,10.93
2019-02-23T01:41:45.303Z,11.40
2019-02-23T01:44:16.137Z,11.40
2019-02-23T01:46:47.003Z,11.63
2019-02-23T01:49:17.676Z,11.50
2019-02-23T01:51:48.340Z,10.80
2019-02-23T01:54:19.123Z,10.53
2019-02-23T01:56:49.788Z,10.93
2019-02-23T01:59:20.270Z,11.57
2019-02-23T02:01:50.903Z,11.00
2019-02-23T02:04:21.527Z,10.87
2019-02-23T02:06:52.142Z,11.37
2019-02-23T02:09:25.953Z,11.73
2019-02-23T02:11:57.257Z,10.73
2019-02-23T02:14:27.909Z,11.17
2019-02-23T02:16:58.459Z,10.17
2019-02-23T02:19:29.219Z,11.60
2019-02-23T02:22:00.341Z,11.70
2019-02-23T02:24:31.478Z,12.17
2019-02-23T02:27:02.061Z,11.73
2019-02-23T02:29:32.814Z,11.30
2019-02-23T02:32:03.362Z,12.00
2019-02-23T02:34:34.055Z,12.13
2019-02-23T02:37:04.901Z,12.33
2019-02-23T02:39:35.577Z,12.97
2019-02-23T02:42:06.193Z,13.23
2019-02-23T02:44:37.442Z,13.27
2019-02-23T02:47:08.097Z,12.27
2019-02-23T02:49:38.748Z,12.87
2019-02-23T02:52:09.406Z,12.10
2019-02-23T02:54:40.454Z,12.37
2019-02-23T02:57:11.232Z,12.67
2019-02-23T02:59:41.840Z,12.93
2019-02-23T03:02:13.113Z,12.90
2019-02-23T03:04:43.842Z,13.23
2019-02-23T03:07:14.503Z,13.13
2019-02-23T03:09:45.097Z,12.77
2019-02-23T03:12:15.698Z,12.77
2019-02-23T03:14:46.359Z,12.20
2019-02-23T03:17:17.175Z,11.67
2019-02-23T03:19:47.857Z,12.63
2019-02-23T03:22:18.597Z,11.47
2019-02-23T03:24:49.572Z,12.30
2019-02-23T03:27:20.715Z,12.33
2019-02-23T03:29:51.845Z,12.50
2019-02-23T03:32:22.444Z,11.63
2019-02-23T03:34:53.177Z,12.53
2019-02-23T03:37:26.376Z,11.80
2019-02-23T03:39:56.907Z,12.00
2019-02-23T03:42:28.734Z,12.63
2019-02-23T03:44:59.222Z,11.80
2019-02-23T03:47:29.953Z,11.87
2019-02-23T03:50:00.614Z,11.93
2019-02-23T03:52:31.164Z,12.73
2019-02-23T03:55:02.009Z,11.60
2019-02-23T03:57:32.722Z,12.13
2019-02-23T04:00:03.375Z,12.47
2019-02-23T04:02:34.109Z,11.17
2019-02-23T04:05:05.229Z,12.27
2019-02-23T04:07:36.396Z,11.53
2019-02-23T04:10:07.425Z,14.17
2019-02-23T04:12:38.224Z,12.03
2019-02-23T04:15:09.295Z,11.67
2019-02-23T04:17:39.994Z,12.40
2019-02-23T04:20:10.550Z,11.37
2019-02-23T04:22:41.140Z,11.50
2019-02-23T04:25:11.777Z,11.70
2019-02-23T04:27:45.403Z,11.50
2019-02-23T04:30:16.231Z,11.73
2019-02-23T04:32:46.947Z,11.57
2019-02-23T04:35:17.577Z,12.10
2019-02-23T04:37:48.302Z,11.47
2019-02-23T04:40:18.818Z,11.67
2019-02-23T04:42:50.235Z,11.90
2019-02-23T04:45:20.880Z,12.37
2019-02-23T04:47:51.685Z,12.30
2019-02-23T04:50:22.435Z,12.00
2019-02-23T04:52:52.476Z,12.53
2019-02-23T04:55:23.095Z,11.57
2019-02-23T04:57:53.261Z,11.80
2019-02-23T05:00:23.570Z,11.20
2019-02-23T05:02:53.771Z,11.20
2019-02-23T05:05:24.071Z,12.30
2019-02-23T05:07:54.192Z,12.60
2019-02-23T05:10:24.330Z,12.47
2019-02-23T05:12:54.396Z,12.47
2019-02-23T05:15:25.009Z,13.13
2019-02-23T05:17:55.666Z,12.60
2019-02-23T05:20:26.457Z,11.43
2019-02-23T05:22:56.686Z,13.17
2019-02-23T05:25:26.929Z,12.47
2019-02-23T05:27:57.074Z,13.30
2019-02-23T05:30:27.339Z,12.87
2019-02-23T05:32:57.305Z,13.37
2019-02-23T05:35:27.557Z,13.30
2019-02-23T05:37:59.470Z,13.27
2019-02-23T05:40:30.421Z,14.17
2019-02-23T05:43:01.519Z,13.33
2019-02-23T05:45:32.192Z,12.90
2019-02-23T05:48:02.937Z,13.37
2019-02-23T05:50:33.748Z,12.77
2019-02-23T05:53:04.410Z,13.27
2019-02-23T05:55:35.563Z,13.10
2019-02-23T05:58:06.133Z,14.17
2019-02-23T06:00:36.947Z,13.53
2019-02-23T06:03:07.633Z,12.93
2019-02-23T06:05:39.500Z,13.20
2019-02-23T06:08:10.033Z,13.03
2019-02-23T06:10:41.144Z,13.00
2019-02-23T06:13:12.195Z,13.93
2019-02-23T06:15:42.883Z,14.33
2019-02-23T06:18:13.563Z,14.20
2019-02-23T06:20:44.525Z,14.40
2019-02-23T06:23:15.301Z,14.23
2019-02-23T06:25:46.038Z,13.43
2019-02-23T06:28:16.523Z,13.60
2019-02-23T06:30:47.548Z,12.97
2019-02-23T06:33:21.387Z,13.60
2019-02-23T06:35:53.592Z,13.53
2019-02-23T06:38:24.143Z,13.93
2019-02-23T06:40:54.564Z,13.07
2019-02-23T06:43:24.794Z,13.50
2019-02-23T06:45:55.039Z,14.00
2019-02-23T06:48:25.014Z,13.40
2019-02-23T06:50:55.161Z,13.97
2019-02-23T06:53:25.519Z,14.33
2019-02-23T06:55:55.661Z,13.67
2019-02-23T06:58:26.004Z,13.80
2019-02-23T07:00:56.243Z,14.30
2019-02-23T07:03:26.480Z,14.40
2019-02-23T07:05:56.585Z,13.50
2019-02-23T07:08:26.663Z,13.47
2019-02-23T07:10:56.878Z,14.20
2019-02-23T07:13:27.011Z,13.90
2019-02-23T07:15:57.309Z,13.83
2019-02-23T07:18:27.493Z,15.13
2019-02-23T07:20:59.923Z,13.73
2019-02-23T07:23:30.056Z,14.23
2019-02-23T07:26:00.263Z,13.77
2019-02-23T07:28:30.958Z,13.67
2019-02-23T07:31:01.166Z,14.30
2019-02-23T07:33:33.058Z,14.93
2019-02-23T07:36:04.876Z,13.57
2019-02-23T07:38:35.713Z,14.20
2019-02-23T07:41:07.409Z,15.13
2019-02-23T07:43:38.087Z,14.23
2019-02-23T07:46:08.648Z,13.60
2019-02-23T07:48:41.166Z,13.57
2019-02-23T07:51:14.879Z,13.60
2019-02-23T07:53:45.915Z,13.60
2019-02-23T07:56:17.565Z,14.37
2019-02-23T07:58:48.309Z,14.77
2019-02-23T08:01:20.198Z,15.00
2019-02-23T08:03:51.070Z,14.80
2019-02-23T08:06:22.847Z,15.30
2019-02-23T08:08:55.995Z,15.77
2019-02-23T08:11:26.781Z,15.73
2019-02-23T08:13:58.512Z,14.93
2019-02-23T08:16:29.609Z,15.53
2019-02-23T08:19:03.770Z,16.27
2019-02-23T08:21:54.310Z,16.13
2019-02-23T08:24:26.348Z,15.57
2019-02-23T08:27:01.530Z,17.93
2019-02-23T08:29:33.190Z,18.57
2019-02-23T08:32:24.770Z,17.87
2019-02-23T08:34:56.042Z,18.87
2019-02-23T08:40:21.270Z,19.10
2019-02-23T08:42:54.882Z,19.50
2019-02-23T08:45:34.981Z,18.77
2019-02-23T08:48:09.400Z,19.70
2019-02-23T08:50:49.102Z,20.13
2019-02-23T08:53:20.454Z,20.67
2019-02-23T08:55:53.519Z,26.30
2019-02-23T08:58:25.386Z,20.23
2019-02-23T09:00:58.113Z,20.57
2019-02-23T09:03:32.235Z,20.67
2019-02-23T09:06:03.641Z,21.13
2019-02-23T09:08:36.776Z,19.60
2019-02-23T09:11:09.782Z,21.17
2019-02-23T09:13:41.092Z,18.27
2019-02-23T09:16:12.713Z,21.13
2019-02-23T09:18:45.054Z,20.10
2019-02-23T09:21:20.079Z,21.67
2019-02-23T09:23:51.472Z,21.90
2019-02-23T09:26:31.623Z,21.80
2019-02-23T09:29:03.086Z,21.40
2019-02-23T09:31:34.749Z,20.30
2019-02-23T09:34:06.374Z,19.77
2019-02-23T09:36:42.140Z,19.23
